Aérodrome :
LOGIN :

S'inscrire | Disclaimer

   EN    FR    IT 

 










Légende :    VFR   VFR Marginal   IFR   IFR Intensif   IFR Très Intensif
Visi : 
Plafond : 
>= 8 km
>= 3000ft
5 à 8 km
1000 à 3000 ft
1500m à 5 km
500 à 1000 ft
800 à 1500m
200 à 500 ft
< 800m
< 200 ft
Symboles :   Orages  Brouillard  Fortes neiges  Fortes précipitations  Vent > 20 kt
SIGMETs :   Divers  Orages  Givrage  Turbulence  Onde Orograph.  Cendres Volcan.






- Altitude de l'aérodrome : 328 ft
- Code IATA : PGX


LFBX - Périgueux Bassillac

DERNIER METAR :
  • 281130Z AUTO 25003KT 220V310 9999 BKN032/// BKN038/// BKN046/// //////TCU 13/09 Q1017

METARs EXPIRÉS :
  • 281100Z AUTO 24005KT 190V270 9999 SCT012/// SCT017/// BKN032/// ///TCU 13/09 Q1017
  • 281030Z AUTO 24006KT 210V270 9999 FEW015/// BKN066/// //////TCU 12/09 Q1017
  • 281000Z AUTO 25004KT 220V290 9999 FEW009/// //////TCU 12/09 Q1017
  • 280930Z AUTO 25003KT 200V300 9999 BKN009 BKN068 BKN190 11/10 Q1017
  • 280900Z AUTO 23004KT 190V280 9999 SCT009 SCT029 BKN190 11/09 Q1017

TAF N/A



MET'MAP, la Météo Aéronautique d'un coup d'oeil ! - Copyright ORBIFLY Décembre 2007 - Disclaimer

ORBIFLY MET'MAP TEAM :

Programmation & Développement : Alexandra Zaïnal
Sur une idée originale de : Baudouin d'Aumeries
Soutien technique & logistique : Manuel Goepfert
Assistance : Marc-Olivier Méhu




SOURCES & CREDITS :

   NOAA